OIFM

Isfahan International Airport

Airport
ICAO code
OIFM
IATA Code
IFN
Summary
ICAO Region
MID
ICAO Territory
Location

Qahjavarestan, Isfahan Province

Serving
Isfahan
Elevation
5059 ft
Coordinates
32° 44' 50" N , 51° 52' 20" E
KCC
Metar
Observation
OIFM 070430Z 01002KT 5000 HZ BKN040 00/M04 Q1023 A3024
Station
Esfahan
Date/Time
2022-12-07 04:30:00
Wind direction
10°
Wind speed
02 kts
Lowest cloud amount
broken clouds
Temperature
0°C
Dew point
-4°C
Humidity
74%
QNH
1023 hPa
Weather condition
n/a

International airport 15km north east of the city of Isfahan, Iran.

Climatology

Cold semi-arid climate (Köppen climate classification BWk).

Runways

Designator Length Width Surface Rops
08L/26R 4397 45 ASP Yes/Yes
08R/26L 4397 45 ASP Yes/Yes

Airport map

Aerial View

SKYbrary Partners:

Safety knowledge contributed by: